HAAB/ADD METAR and TAF weather

Enter ICAO airport designator
Station Type Date Time Source
HAAB METAR 2019/08/25 02:00 UTC NOAA

HAAB 250200Z 00000KT 9999 SCT025 BKN070 13/12 Q1027


Station Type Date Time Source
HAAB Decoded METAR 2019/08/25 02:00 UTC NOAA

Station name not available
Aug 24, 2019 - 10:00 PM EDT / 2019.08.25 0200 UTC
Wind: Calm:0
Visibility: greater than 7 mile(s):0
Sky conditions: mostly cloudy
Temperature: 55 F (13 C)
Dew Point: 53 F (12 C)
Relative Humidity: 93%
Pressure (altimeter): 30.33 in. Hg (1027 hPa)
ob: HAAB 250200Z 00000KT 9999 SCT025 BKN070 13/12 Q1027
cycle: 2

Station Type Date Time Source
HAAB TAF 2019/08/24 22:21 UTC NOAA

TAF TAF HAAB 242130Z 2422/2604 03006KT 8000 -BR BKN030 BKN060
BECMG 2506/2512 14010KT 8000 -TSRA BKN020 OVC060

Example: see airport list